• Join FlightAware (Why Join?)
  • Login
  • US Flag 
01:19PM EDT


 

Airport Tracker/Info


-or-


 

Live Flight TrackerFlight Track Log ✈ FDX1938 ✈ 20-Jun-2013 ✈ KLCK - KEWR

Flight Track Log - Related Links

Times and Time Zones

All times are in EDT time to prevent confusion due to time zone crossing. See the FDX1938 flight status page for this flight to view local times or setup timezone preferences in your user account.

Time Position Orientation Groundspeed Altitude Reporting Facility
EDT Latitude Longitude Course Direction KTS MPH feet Rate Location/Type
11:35PM 39.7990 -82.9510 226° Southwest 154 177 2,200  Level FlightAware
11:35PM 39.7900 -82.9620 223° Southwest 178 205 2,600 1,440 Climbing FlightAware
11:36PM 39.7700 -82.9860 223° Southwest 232 267 3,300 1,560 Climbing FlightAware
11:36PM 39.7550 -82.9910 194° South 252 290 3,700 3,060 Climbing FlightAware
11:37PM 39.7260 -82.9700 151° Southeast 267 307 5,400 3,420 Climbing FlightAware
11:37PM 39.7210 -82.9560 115° Southeast 267 307 6,000 3,900 Climbing FlightAware
11:37PM 39.7180 -82.9310 99° East 271 312 7,100 3,900 Climbing FlightAware
11:37PM 39.7220 -82.8790 84° East 285 328 8,900 3,060 Climbing FlightAware
11:38PM 39.7340 -82.8070 78° East 321 369 10,800 2,100 Climbing FlightAware
11:39PM 39.7530 -82.7290 72° East 376 433 11,800 2,160 Climbing FlightAware
11:40PM 39.7800 -82.6280 71° East 398 458 13,900 2,580 Climbing FlightAware
11:40PM 39.7970 -82.5560 73° East 407 468 15,400 2,700 Climbing FlightAware
11:41PM 39.8270 -82.4300 73° East 421 484 17,700 2,700 Climbing FlightAware
11:42PM 39.8520 -82.3320 72° East 433 498 19,300 2,340 Climbing FlightAware
11:42PM 39.8780 -82.2210 73° East 446 513 21,000 2,220 Climbing FlightAware
11:43PM 39.9050 -82.1120 72° East 459 528 22,500 2,040 Climbing FlightAware
11:44PM 39.9300 -82.0050 73° East 467 537 23,800 1,860 Climbing FlightAware
11:44PM 39.9550 -81.8990 73° East 477 549 25,000 1,800 Climbing FlightAware
11:45PM 39.9840 -81.7770 73° East 482 555 26,400 2,160 Climbing FlightAware
11:46PM 40.0110 -81.6610 73° East 475 547 28,100 2,340 Climbing FlightAware
11:47PM 40.0370 -81.5530 73° East 466 536 29,700 2,160 Climbing FlightAware
11:47PM 40.0630 -81.4380 74° East 463 533 31,100 1,800 Climbing FlightAware
11:48PM 40.0950 -81.3270 69° East 463 533 32,200 1,440 Climbing FlightAware
11:49PM 40.1280 -81.2150 69° East 463 533 33,200 1,380 Climbing FlightAware
11:49PM 40.1620 -81.1010 69° East 462 532 34,300 1,080 Climbing FlightAware
11:50PM 40.2060 -80.9530 69° East 462 532 35,000 420 Climbing FlightAware
11:51PM 40.2390 -80.8410 69° East 462 532 35,000  Level FlightAware
11:52PM 40.2680 -80.7390 70° East 461 531 35,000  Level FlightAware
11:52PM 40.3000 -80.6300 69° East 459 528 35,000  Level FlightAware
11:53PM 40.3340 -80.5120 69° East 461 531 35,000  Level FlightAware
11:54PM 40.3640 -80.4070 69° East 463 533 35,000  Level FlightAware
11:54PM 40.3940 -80.3020 69° East 463 533 35,000  Level FlightAware
11:55PM 40.4290 -80.1810 69° East 465 535 35,000  Level FlightAware
11:56PM 40.4590 -80.0750 70° East 466 536 35,000  Level FlightAware
11:57PM 40.4930 -79.9590 69° East 467 537 35,000  Level FlightAware
11:57PM 40.5240 -79.8470 70° East 467 537 35,000  Level FlightAware
11:58PM 40.5560 -79.7350 69° East 466 536 35,000  Level FlightAware
11:59PM 40.5860 -79.6280 70° East 466 536 35,000  Level FlightAware
11:59PM 40.6170 -79.5160 70° East 468 539 35,000  Level FlightAware
12:02AM 40.6530 -79.3850 70° East 470 541 35,000  Level FlightAware
12:02AM 40.7540 -79.0160 70° East 471 542 35,000  Level FlightAware
12:03AM 40.7850 -78.9050 70° East 470 541 35,000  Level FlightAware
12:04AM 40.8150 -78.7940 70° East 472 543 35,000  Level FlightAware
12:05AM 40.8470 -78.6750 70° East 474 545 35,000  Level FlightAware
12:05AM 40.8740 -78.5740 71° East 476 548 35,000  Level FlightAware
12:06AM 40.9020 -78.4700 70° East 474 545 35,000  Level FlightAware
12:07AM 40.9120 -78.3130 85° East 484 557 35,000  Level FlightAware
12:08AM 40.9120 -78.1650 90° East 484 557 35,000  Level FlightAware
12:08AM 40.9120 -78.0470 90° East 485 558 35,000  Level FlightAware
12:09AM 40.9126 -77.9014 90° East 487 560 35,000  Level FlightAware ADS-B
12:10AM 40.9127 -77.8002 90° East 488 562 35,000  Level FlightAware ADS-B
12:10AM 40.9126 -77.7079 90° East 489 563 35,000  Level FlightAware ADS-B
12:11AM 40.9125 -77.6185 90° East 488 562 35,000  Level FlightAware ADS-B
12:11AM 40.9121 -77.4727 90° East 489 563 35,000  Level FlightAware ADS-B
12:12AM 40.9115 -77.3442 90° East 491 565 35,000  Level FlightAware ADS-B
12:13AM 40.9111 -77.2511 90° East 493 567 35,000  Level FlightAware ADS-B
12:13AM 40.9106 -77.1546 90° East 494 568 35,000  Level FlightAware ADS-B
12:14AM 40.9100 -77.0641 90° East 494 568 35,000  Level FlightAware ADS-B
12:14AM 40.9094 -76.9708 90° East 494 568 35,000  Level FlightAware ADS-B
12:15AM 40.9088 -76.8774 90° East 496 571 35,000 -240 Level FlightAware ADS-B
12:15AM 40.9080 -76.7863 91° East 498 573 34,800 -1,500 Descending FlightAware ADS-B
12:16AM 40.9072 -76.6932 91° East 491 565 33,500 -3,060 Descending FlightAware ADS-B
12:16AM 40.9062 -76.6002 91° East 493 567 31,700 -3,540 Descending FlightAware ADS-B
12:17AM 40.9051 -76.5098 91° East 492 566 30,000 -3,540 Descending FlightAware ADS-B
12:17AM 40.9040 -76.4199 91° East 491 565 28,200 -3,840 Descending FlightAware ADS-B
12:18AM 40.9030 -76.3271 91° East 492 566 26,100 -3,600 Descending FlightAware ADS-B
12:18AM 40.9018 -76.2381 91° East 481 554 24,500 -3,300 Descending FlightAware ADS-B
12:19AM 40.9005 -76.1478 91° East 473 544 22,800 -3,180 Descending FlightAware ADS-B
12:19AM 40.8991 -76.0621 91° East 463 533 21,300 -2,940 Descending FlightAware ADS-B
12:20AM 40.8979 -75.9756 91° East 452 520 19,800 -2,880 Descending FlightAware ADS-B
12:20AM 40.8966 -75.8862 91° East 440 506 18,300 -2,820 Descending FlightAware ADS-B
12:21AM 40.8952 -75.8065 91° East 431 496 16,900 -2,940 Descending FlightAware ADS-B
12:21AM 40.8937 -75.7284 91° East 422 486 15,400 -2,880 Descending FlightAware ADS-B
12:22AM 40.8923 -75.6517 91° East 414 476 14,000 -2,760 Descending FlightAware ADS-B
12:22AM 40.8908 -75.5769 91° East 405 466 12,600 -2,700 Descending FlightAware ADS-B
12:23AM 40.8895 -75.5036 91° East 394 453 11,300 -2,220 Descending FlightAware ADS-B
12:23AM 40.8880 -75.4302 92° East 375 432 10,400 -1,020 Descending FlightAware ADS-B
12:24AM 40.8866 -75.3634 92° East 334 384 10,300 -480 Descending FlightAware ADS-B
12:25AM 40.8849 -75.2903 92° East 320 368 9,900 -960 Descending FlightAware ADS-B
12:25AM 40.8841 -75.2533 92° East 300 345 9,400 -1,440 Descending FlightAware ADS-B
12:25AM 40.8835 -75.2259 92° East 297 342 9,100 -1,200 Descending FlightAware ADS-B
12:25AM 40.8827 -75.1954 92° East 295 339 8,800 -720 Descending FlightAware ADS-B
12:26AM 40.8818 -75.1664 92° East 294 338 8,700 -240 Descending FlightAware ADS-B
12:26AM 40.8810 -75.1378 92° East 292 336 8,700  Level FlightAware ADS-B
12:26AM 40.8805 -75.1200 92° East 292 336 8,700  Level FlightAware ADS-B
12:26AM 40.8801 -75.1146 96° East 293 337 8,700  Level FlightAware ADS-B
12:26AM 40.8794 -75.1077 98° East 294 338 8,700  Level FlightAware ADS-B
12:26AM 40.8783 -75.1023 105° East 293 337 8,700  Level FlightAware ADS-B
12:26AM 40.8771 -75.0972 107° East 293 337 8,700  Level FlightAware ADS-B
12:27AM 40.8701 -75.0701 109° East 294 338 8,700  Level FlightAware ADS-B
12:27AM 40.8626 -75.0432 110° East 293 337 8,700  Level FlightAware ADS-B
12:27AM 40.8597 -75.0313 108° East 293 337 8,700  Level FlightAware ADS-B
12:27AM 40.8583 -75.0208 100° East 293 337 8,700  Level FlightAware ADS-B
12:27AM 40.8583 -75.0118 90° East 294 338 8,700  Level FlightAware ADS-B
12:27AM 40.8588 -75.0065 83° East 295 339 8,700  Level FlightAware ADS-B
12:27AM 40.8595 -75.0012 80° East 295 339 8,700  Level FlightAware ADS-B
12:28AM 40.8636 -74.9747 78° East 295 339 8,700  Level FlightAware ADS-B
12:28AM 40.8680 -74.9465 78° East 295 339 8,700 -240 Level FlightAware ADS-B
12:28AM 40.8723 -74.9200 78° East 297 342 8,600 -600 Descending FlightAware ADS-B
12:28AM 40.8766 -74.8932 78° East 296 341 8,400 -960 Descending FlightAware ADS-B
12:29AM 40.8809 -74.8649 79° East 293 337 8,100 -1,020 Descending FlightAware ADS-B
12:29AM 40.8848 -74.8389 79° East 290 334 7,900 -960 Descending FlightAware ADS-B
12:29AM 40.8875 -74.8197 79° East 287 330 7,700 -960 Descending FlightAware ADS-B
12:29AM 40.8911 -74.7921 80° East 285 328 7,500 -1,020 Descending FlightAware ADS-B
12:29AM 40.8946 -74.7663 80° East 284 327 7,200 -1,020 Descending FlightAware ADS-B
12:30AM 40.8992 -74.7303 80° East 283 326 6,900 -960 Descending FlightAware ADS-B
12:30AM 40.9042 -74.6911 80° East 283 326 6,500 -1,020 Descending FlightAware ADS-B
12:31AM 40.9083 -74.6590 80° East 280 322 6,200 -1,080 Descending FlightAware ADS-B
12:31AM 40.9117 -74.6320 81° East 278 320 5,900 -1,020 Descending FlightAware ADS-B
12:31AM 40.9152 -74.6071 79° East 276 318 5,700 -1,020 Descending FlightAware ADS-B
12:31AM 40.9187 -74.5822 79° East 274 315 5,400 -960 Descending FlightAware ADS-B
12:32AM 40.9224 -74.5541 80° East 274 315 5,200 -900 Descending FlightAware ADS-B
12:32AM 40.9230 -74.5474 83° East 275 316 5,100 -1,500 Descending FlightAware ADS-B
12:32AM 40.9230 -74.5407 90° East 276 318 5,000 -900 Descending FlightAware ADS-B
12:32AM 40.9227 -74.5358 95° East 277 319 5,000 -900 Level FlightAware ADS-B
12:32AM 40.9219 -74.5274 97° East 276 318 4,900 -1,200 Descending FlightAware ADS-B
12:32AM 40.9196 -74.5091 99° East 275 316 4,700 -960 Descending FlightAware ADS-B
12:32AM 40.9182 -74.4974 99° East 276 318 4,600 -1,020 Descending FlightAware ADS-B
12:32AM 40.9162 -74.4806 99° East 275 316 4,400 -1,140 Descending FlightAware ADS-B
12:32AM 40.9150 -74.4707 99° East 275 316 4,300 -900 Descending FlightAware ADS-B
12:33AM 40.9122 -74.4441 98° East 277 319 4,100 -660 Descending FlightAware ADS-B
12:34AM 40.9040 -74.3620 98° East 278 320 3,600 -1,020 Descending FlightAware
12:34AM 40.8980 -74.2990 97° East 276 318 2,700 -840 Descending FlightAware
12:35AM 40.8940 -74.2450 96° East 276 318 2,700  Level FlightAware
12:35AM 40.8903 -74.2067 97° East 277 319 2,700  Level FlightAware ADS-B
12:35AM 40.8883 -74.1836 97° East 264 304 2,700  Level FlightAware ADS-B
12:36AM 40.8864 -74.1601 96° East 249 287 2,700  Level FlightAware ADS-B
12:36AM 40.8857 -74.1558 102° East 244 281 2,700  Level FlightAware ADS-B
12:36AM 40.8845 -74.1500 105° East 238 274 2,700  Level FlightAware ADS-B
12:36AM 40.8832 -74.1459 113° Southeast 234 269 2,700  Level FlightAware ADS-B
12:36AM 40.8797 -74.1387 123° Southeast 229 264 2,700  Level FlightAware ADS-B
12:36AM 40.8775 -74.1346 125° Southeast 226 260 2,700  Level FlightAware ADS-B
12:36AM 40.8748 -74.1318 142° Southeast 223 257 2,700  Level FlightAware ADS-B
12:36AM 40.8710 -74.1276 140° Southeast 221 254 2,700  Level FlightAware ADS-B
12:36AM 40.8647 -74.1219 146° Southeast 220 253 2,700  Level FlightAware ADS-B
12:36AM 40.8548 -74.1115 142° Southeast 217 250 2,700  Level FlightAware ADS-B
12:36AM 40.8502 -74.1077 148° Southeast 217 250 2,700  Level FlightAware ADS-B
12:36AM 40.8474 -74.1055 149° Southeast 216 249 2,700  Level FlightAware ADS-B
12:37AM 40.8433 -74.1027 153° Southeast 213 245 2,700 -780 Level FlightAware ADS-B
12:37AM 40.8405 -74.1015 162° South 209 241 2,600 -1,500 Descending FlightAware ADS-B
12:37AM 40.8358 -74.1003 169° South 206 237 2,500 -900 Descending FlightAware ADS-B
12:37AM 40.8216 -74.0979 173° South 200 230 2,300 -840 Descending FlightAware ADS-B
12:37AM 40.7984 -74.1002 184° South 193 222 1,900 -900 Descending FlightAware ADS-B
12:38AM 40.7933 -74.1038 208° Southwest 166 191 1,800 -780 Descending FlightAware ADS-B
12:38AM 40.7881 -74.1078 210° Southwest 160 184 1,700 -1,140 Descending FlightAware ADS-B
12:38AM 40.7860 -74.1092 207° Southwest 159 183 1,600 -960 Descending FlightAware ADS-B
12:38AM 40.7758 -74.1155 205° Southwest 146 168 1,400 -960 Descending FlightAware ADS-B
12:38AM 40.7695 -74.1194 205° Southwest 137 158 1,200 -720 Descending FlightAware ADS-B
12:38AM 40.7613 -74.1244 205° Southwest 125 144 1,100 -600 Descending FlightAware ADS-B
12:39AM 40.7540 -74.1291 206° Southwest 109 125 900 -780 Descending FlightAware ADS-B
12:39AM 40.7470 -74.1339 207° Southwest 108 124 700 -720 Descending FlightAware ADS-B
12:39AM 40.7421 -74.1371 206° Southwest 112 129 600 -600 Descending FlightAware ADS-B
12:39AM 40.7376 -74.1398 204° Southwest 114 131 500 -600 Descending FlightAware ADS-B
12:40AM 40.7275 -74.1463 206° Southwest 119 137 300 -600 Descending FlightAware ADS-B